sensor_id;sensor_type;location;lat;lon;timestamp;pressure;altitude;pressure_sealevel;temperature;humidity
4346;BME280;2186;49.866;7.986;2024-01-11T00:01:19;101550.00;;;-5.42;83.94
4346;BME280;2186;49.866;7.986;2024-01-11T00:03:45;101552.41;;;-5.14;83.05
4346;BME280;2186;49.866;7.986;2024-01-11T00:06:12;101553.03;;;-5.49;83.99
4346;BME280;2186;49.866;7.986;2024-01-11T00:08:38;101563.50;;;-5.47;84.71
4346;BME280;2186;49.866;7.986;2024-01-11T00:11:05;101561.31;;;-5.40;84.46
4346;BME280;2186;49.866;7.986;2024-01-11T00:13:31;101556.72;;;-5.45;84.54
4346;BME280;2186;49.866;7.986;2024-01-11T00:15:58;101566.09;;;-5.62;84.59
4346;BME280;2186;49.866;7.986;2024-01-11T00:18:24;101563.38;;;-5.49;85.23
4346;BME280;2186;49.866;7.986;2024-01-11T00:20:51;101561.97;;;-5.44;84.89
4346;BME280;2186;49.866;7.986;2024-01-11T00:23:18;101567.69;;;-5.49;84.54
4346;BME280;2186;49.866;7.986;2024-01-11T00:25:48;101568.22;;;-5.55;85.49
4346;BME280;2186;49.866;7.986;2024-01-11T00:28:15;101573.53;;;-5.68;85.68
4346;BME280;2186;49.866;7.986;2024-01-11T00:30:41;101577.78;;;-5.54;85.88
4346;BME280;2186;49.866;7.986;2024-01-11T00:33:08;101574.47;;;-5.51;85.60
4346;BME280;2186;49.866;7.986;2024-01-11T00:35:35;101574.47;;;-5.51;85.37
4346;BME280;2186;49.866;7.986;2024-01-11T00:38:02;101569.56;;;-5.47;84.83
4346;BME280;2186;49.866;7.986;2024-01-11T00:40:29;101573.16;;;-5.59;85.68
4346;BME280;2186;49.866;7.986;2024-01-11T00:42:55;101573.09;;;-5.61;85.24
4346;BME280;2186;49.866;7.986;2024-01-11T00:45:21;101570.19;;;-5.51;85.06
4346;BME280;2186;49.866;7.986;2024-01-11T00:47:48;101579.16;;;-5.60;85.45
4346;BME280;2186;49.866;7.986;2024-01-11T00:50:14;101580.28;;;-5.55;86.07
4346;BME280;2186;49.866;7.986;2024-01-11T00:52:41;101577.72;;;-5.70;85.90
4346;BME280;2186;49.866;7.986;2024-01-11T00:55:08;101580.13;;;-5.58;86.16
4346;BME280;2186;49.866;7.986;2024-01-11T00:57:34;101578.78;;;-5.67;85.46
4346;BME280;2186;49.866;7.986;2024-01-11T01:00:00;101584.88;;;-5.81;85.71
4346;BME280;2186;49.866;7.986;2024-01-11T01:02:27;101579.19;;;-5.90;86.21
4346;BME280;2186;49.866;7.986;2024-01-11T01:04:53;101584.44;;;-5.74;86.36
4346;BME280;2186;49.866;7.986;2024-01-11T01:07:20;101581.75;;;-5.75;87.13
4346;BME280;2186;49.866;7.986;2024-01-11T01:09:46;101586.47;;;-5.68;86.79
4346;BME280;2186;49.866;7.986;2024-01-11T01:12:13;101582.41;;;-5.48;86.16
4346;BME280;2186;49.866;7.986;2024-01-11T01:14:39;101585.22;;;-5.60;85.92
4346;BME280;2186;49.866;7.986;2024-01-11T01:17:06;101577.75;;;-5.85;86.76
4346;BME280;2186;49.866;7.986;2024-01-11T01:19:32;101576.84;;;-5.85;86.51
4346;BME280;2186;49.866;7.986;2024-01-11T01:21:59;101579.44;;;-5.85;86.26
4346;BME280;2186;49.866;7.986;2024-01-11T01:24:26;101584.06;;;-5.80;85.85
4346;BME280;2186;49.866;7.986;2024-01-11T01:26:52;101578.94;;;-5.94;85.41
4346;BME280;2186;49.866;7.986;2024-01-11T01:29:19;101584.75;;;-5.99;85.90
4346;BME280;2186;49.866;7.986;2024-01-11T01:31:45;101587.81;;;-5.89;85.82
4346;BME280;2186;49.866;7.986;2024-01-11T01:34:12;101590.50;;;-5.88;86.73
4346;BME280;2186;49.866;7.986;2024-01-11T01:36:38;101576.03;;;-5.84;85.83
4346;BME280;2186;49.866;7.986;2024-01-11T01:39:05;101585.00;;;-5.94;86.05
4346;BME280;2186;49.866;7.986;2024-01-11T01:41:31;101583.38;;;-5.92;85.28
4346;BME280;2186;49.866;7.986;2024-01-11T01:43:58;101585.06;;;-5.92;85.79
4346;BME280;2186;49.866;7.986;2024-01-11T01:46:25;101583.13;;;-5.97;85.99
4346;BME280;2186;49.866;7.986;2024-01-11T01:48:53;101590.59;;;-5.86;86.02
4346;BME280;2186;49.866;7.986;2024-01-11T01:51:21;101589.91;;;-5.99;85.93
4346;BME280;2186;49.866;7.986;2024-01-11T01:53:50;101598.81;;;-5.93;85.50
4346;BME280;2186;49.866;7.986;2024-01-11T01:56:19;101599.63;;;-5.94;85.91
4346;BME280;2186;49.866;7.986;2024-01-11T01:58:47;101605.78;;;-5.92;86.02
4346;BME280;2186;49.866;7.986;2024-01-11T02:01:16;101612.72;;;-6.06;86.00
4346;BME280;2186;49.866;7.986;2024-01-11T02:03:43;101608.84;;;-6.00;85.92
4346;BME280;2186;49.866;7.986;2024-01-11T02:06:10;101607.84;;;-6.02;85.35
4346;BME280;2186;49.866;7.986;2024-01-11T02:08:37;101607.22;;;-6.12;86.79
4346;BME280;2186;49.866;7.986;2024-01-11T02:11:04;101620.41;;;-6.08;87.72
4346;BME280;2186;49.866;7.986;2024-01-11T02:13:31;101618.00;;;-6.05;86.63
4346;BME280;2186;49.866;7.986;2024-01-11T02:15:58;101616.94;;;-5.93;86.63
4346;BME280;2186;49.866;7.986;2024-01-11T02:18:25;101612.31;;;-5.99;86.10
4346;BME280;2186;49.866;7.986;2024-01-11T02:20:51;101614.88;;;-6.14;86.36
4346;BME280;2186;49.866;7.986;2024-01-11T02:23:21;101608.13;;;-5.97;86.54
4346;BME280;2186;49.866;7.986;2024-01-11T02:25:47;101613.38;;;-5.95;86.15
4346;BME280;2186;49.866;7.986;2024-01-11T02:28:14;101615.31;;;-6.06;85.99
4346;BME280;2186;49.866;7.986;2024-01-11T02:30:40;101617.56;;;-6.12;85.18
4346;BME280;2186;49.866;7.986;2024-01-11T02:33:07;101616.59;;;-6.00;85.92
4346;BME280;2186;49.866;7.986;2024-01-11T02:35:34;101618.63;;;-5.94;86.56
4346;BME280;2186;49.866;7.986;2024-01-11T02:38:04;101625.44;;;-5.96;86.87
4346;BME280;2186;49.866;7.986;2024-01-11T02:40:31;101626.31;;;-6.10;86.86
4346;BME280;2186;49.866;7.986;2024-01-11T02:43:07;101615.69;;;-6.00;86.85
4346;BME280;2186;49.866;7.986;2024-01-11T02:45:33;101615.69;;;-6.00;86.90
4346;BME280;2186;49.866;7.986;2024-01-11T02:48:00;101621.84;;;-5.98;86.34
4346;BME280;2186;49.866;7.986;2024-01-11T02:50:26;101618.81;;;-5.91;85.91
4346;BME280;2186;49.866;7.986;2024-01-11T02:52:53;101613.88;;;-5.86;86.52
4346;BME280;2186;49.866;7.986;2024-01-11T02:55:19;101620.78;;;-6.16;86.71
4346;BME280;2186;49.866;7.986;2024-01-11T02:57:47;101614.59;;;-6.18;86.71
4346;BME280;2186;49.866;7.986;2024-01-11T03:00:14;101611.03;;;-6.20;86.36
4346;BME280;2186;49.866;7.986;2024-01-11T03:02:40;101617.88;;;-6.36;87.70
4346;BME280;2186;49.866;7.986;2024-01-11T03:05:07;101611.41;;;-6.14;87.43
4346;BME280;2186;49.866;7.986;2024-01-11T03:07:34;101607.38;;;-6.09;87.19
4346;BME280;2186;49.866;7.986;2024-01-11T03:10:00;101611.41;;;-6.14;86.66
4346;BME280;2186;49.866;7.986;2024-01-11T03:12:27;101603.88;;;-6.24;86.76
4346;BME280;2186;49.866;7.986;2024-01-11T03:14:55;101609.06;;;-6.24;87.38
4346;BME280;2186;49.866;7.986;2024-01-11T03:17:21;101607.63;;;-6.19;86.87
4346;BME280;2186;49.866;7.986;2024-01-11T03:19:48;101608.59;;;-6.32;86.76
4346;BME280;2186;49.866;7.986;2024-01-11T03:22:14;101606.88;;;-6.46;87.50
4346;BME280;2186;49.866;7.986;2024-01-11T03:24:41;101603.25;;;-6.35;87.15
4346;BME280;2186;49.866;7.986;2024-01-11T03:27:07;101599.34;;;-6.29;86.69
4346;BME280;2186;49.866;7.986;2024-01-11T03:29:33;101604.81;;;-6.52;86.23
4346;BME280;2186;49.866;7.986;2024-01-11T03:32:00;101593.78;;;-6.35;86.77
4346;BME280;2186;49.866;7.986;2024-01-11T03:34:27;101589.06;;;-6.42;86.54
4346;BME280;2186;49.866;7.986;2024-01-11T03:36:53;101589.41;;;-6.36;86.60
4346;BME280;2186;49.866;7.986;2024-01-11T03:39:20;101582.47;;;-6.37;85.58
4346;BME280;2186;49.866;7.986;2024-01-11T03:41:46;101581.56;;;-6.37;86.36
4346;BME280;2186;49.866;7.986;2024-01-11T03:44:13;101587.47;;;-6.40;86.80
4346;BME280;2186;49.866;7.986;2024-01-11T03:46:40;101588.91;;;-6.58;87.80
4346;BME280;2186;49.866;7.986;2024-01-11T03:49:06;101585.59;;;-6.42;87.53
4346;BME280;2186;49.866;7.986;2024-01-11T03:51:34;101583.25;;;-6.52;86.97
4346;BME280;2186;49.866;7.986;2024-01-11T03:54:01;101586.19;;;-6.46;87.20
4346;BME280;2186;49.866;7.986;2024-01-11T03:56:27;101587.69;;;-6.50;87.53
4346;BME280;2186;49.866;7.986;2024-01-11T03:58:54;101584.84;;;-6.54;86.45
4346;BME280;2186;49.866;7.986;2024-01-11T04:01:20;101590.09;;;-6.53;87.10
4346;BME280;2186;49.866;7.986;2024-01-11T04:03:47;101588.13;;;-6.57;87.11
4346;BME280;2186;49.866;7.986;2024-01-11T04:06:22;101594.53;;;-6.65;87.00
4346;BME280;2186;49.866;7.986;2024-01-11T04:08:50;101584.03;;;-6.53;87.24
4346;BME280;2186;49.866;7.986;2024-01-11T04:11:17;101582.97;;;-6.57;86.42
4346;BME280;2186;49.866;7.986;2024-01-11T04:13:43;101580.88;;;-6.63;86.33
4346;BME280;2186;49.866;7.986;2024-01-11T04:16:10;101583.19;;;-6.67;86.36
4346;BME280;2186;49.866;7.986;2024-01-11T04:18:36;101574.56;;;-6.68;86.88
4346;BME280;2186;49.866;7.986;2024-01-11T04:21:03;101581.69;;;-6.64;87.52
4346;BME280;2186;49.866;7.986;2024-01-11T04:23:30;101594.16;;;-6.71;87.75
4346;BME280;2186;49.866;7.986;2024-01-11T04:25:56;101599.63;;;-6.52;88.38
4346;BME280;2186;49.866;7.986;2024-01-11T04:28:23;101596.88;;;-6.55;87.81
4346;BME280;2186;49.866;7.986;2024-01-11T04:30:49;101601.34;;;-6.52;87.58
4346;BME280;2186;49.866;7.986;2024-01-11T04:33:16;101595.41;;;-6.65;87.17
4346;BME280;2186;49.866;7.986;2024-01-11T04:35:42;101597.19;;;-6.64;86.68
4346;BME280;2186;49.866;7.986;2024-01-11T04:38:09;101599.97;;;-6.61;86.52
4346;BME280;2186;49.866;7.986;2024-01-11T04:40:35;101591.25;;;-6.48;86.20
4346;BME280;2186;49.866;7.986;2024-01-11T04:43:02;101599.63;;;-6.52;85.52
4346;BME280;2186;49.866;7.986;2024-01-11T04:45:29;101601.09;;;-6.42;85.65
4346;BME280;2186;49.866;7.986;2024-01-11T04:47:55;101603.16;;;-6.37;85.08
4346;BME280;2186;49.866;7.986;2024-01-11T04:50:22;101608.19;;;-6.53;84.89
4346;BME280;2186;49.866;7.986;2024-01-11T04:52:49;101604.38;;;-6.73;85.57
4346;BME280;2186;49.866;7.986;2024-01-11T04:55:15;101608.47;;;-6.76;86.90
4346;BME280;2186;49.866;7.986;2024-01-11T04:57:41;101602.84;;;-6.84;87.00
4346;BME280;2186;49.866;7.986;2024-01-11T05:00:08;101604.16;;;-6.63;87.05
4346;BME280;2186;49.866;7.986;2024-01-11T05:02:35;101595.19;;;-6.54;87.58
4346;BME280;2186;49.866;7.986;2024-01-11T05:05:01;101596.63;;;-6.73;86.89
4346;BME280;2186;49.866;7.986;2024-01-11T05:07:28;101606.00;;;-6.88;86.65
4346;BME280;2186;49.866;7.986;2024-01-11T05:09:54;101603.31;;;-6.76;86.96
4346;BME280;2186;49.866;7.986;2024-01-11T05:12:21;101602.69;;;-6.72;87.58
4346;BME280;2186;49.866;7.986;2024-01-11T05:14:47;101598.53;;;-6.70;87.33
4346;BME280;2186;49.866;7.986;2024-01-11T05:17:14;101599.94;;;-6.89;87.17
4346;BME280;2186;49.866;7.986;2024-01-11T05:19:40;101613.38;;;-6.81;87.68
4346;BME280;2186;49.866;7.986;2024-01-11T05:22:07;101609.66;;;-6.71;87.62
4346;BME280;2186;49.866;7.986;2024-01-11T05:24:33;101612.25;;;-6.71;86.64
4346;BME280;2186;49.866;7.986;2024-01-11T05:27:00;101613.84;;;-6.87;86.71
4346;BME280;2186;49.866;7.986;2024-01-11T05:29:27;101616.44;;;-6.87;86.87
4346;BME280;2186;49.866;7.986;2024-01-11T05:31:53;101611.81;;;-6.64;86.91
4346;BME280;2186;49.866;7.986;2024-01-11T05:34:20;101619.69;;;-6.76;87.45
4346;BME280;2186;49.866;7.986;2024-01-11T05:36:47;101623.94;;;-6.63;87.34
4346;BME280;2186;49.866;7.986;2024-01-11T05:39:13;101630.53;;;-6.68;86.44
4346;BME280;2186;49.866;7.986;2024-01-11T05:41:43;101622.91;;;-6.80;86.37
4346;BME280;2186;49.866;7.986;2024-01-11T05:44:09;101624.75;;;-6.64;86.00
4346;BME280;2186;49.866;7.986;2024-01-11T05:46:36;101637.91;;;-6.88;86.55
4346;BME280;2186;49.866;7.986;2024-01-11T05:49:02;101639.94;;;-6.97;86.83
4346;BME280;2186;49.866;7.986;2024-01-11T05:51:29;101629.34;;;-6.87;86.92
4346;BME280;2186;49.866;7.986;2024-01-11T05:53:56;101624.91;;;-6.89;87.33
4346;BME280;2186;49.866;7.986;2024-01-11T05:56:22;101625.97;;;-6.86;87.04
4346;BME280;2186;49.866;7.986;2024-01-11T05:58:49;101620.63;;;-6.89;87.64
4346;BME280;2186;49.866;7.986;2024-01-11T06:01:15;101617.59;;;-6.68;87.47
4346;BME280;2186;49.866;7.986;2024-01-11T06:03:42;101619.91;;;-6.86;88.09
4346;BME280;2186;49.866;7.986;2024-01-11T06:06:08;101623.88;;;-6.78;87.45
4346;BME280;2186;49.866;7.986;2024-01-11T06:08:35;101628.13;;;-6.65;87.02
4346;BME280;2186;49.866;7.986;2024-01-11T06:11:02;101638.22;;;-6.83;86.94
4346;BME280;2186;49.866;7.986;2024-01-11T06:13:30;101635.69;;;-6.68;85.98
4346;BME280;2186;49.866;7.986;2024-01-11T06:15:56;101641.22;;;-6.62;87.11
4346;BME280;2186;49.866;7.986;2024-01-11T06:18:23;101648.50;;;-6.57;86.45
4346;BME280;2186;49.866;7.986;2024-01-11T06:20:50;101649.97;;;-6.60;86.14
4346;BME280;2186;49.866;7.986;2024-01-11T06:23:16;101650.91;;;-6.73;86.08
4346;BME280;2186;49.866;7.986;2024-01-11T06:25:43;101644.63;;;-6.63;86.00
4346;BME280;2186;49.866;7.986;2024-01-11T06:28:12;101658.28;;;-6.79;85.75
4346;BME280;2186;49.866;7.986;2024-01-11T06:30:38;101660.19;;;-6.90;86.94
4346;BME280;2186;49.866;7.986;2024-01-11T06:33:05;101669.44;;;-6.93;86.72
4346;BME280;2186;49.866;7.986;2024-01-11T06:35:32;101676.91;;;-6.98;86.56
4346;BME280;2186;49.866;7.986;2024-01-11T06:37:58;101685.75;;;-7.07;86.99
4346;BME280;2186;49.866;7.986;2024-01-11T06:40:25;101686.34;;;-6.98;87.35
4346;BME280;2186;49.866;7.986;2024-01-11T06:42:51;101689.56;;;-6.61;86.59
4346;BME280;2186;49.866;7.986;2024-01-11T06:45:18;101697.44;;;-6.86;86.94
4346;BME280;2186;49.866;7.986;2024-01-11T06:47:45;101715.34;;;-7.02;86.81
4346;BME280;2186;49.866;7.986;2024-01-11T06:50:12;101713.16;;;-6.83;86.12
4346;BME280;2186;49.866;7.986;2024-01-11T06:52:39;101711.38;;;-6.84;85.91
4346;BME280;2186;49.866;7.986;2024-01-11T06:55:06;101715.75;;;-6.96;86.32
4346;BME280;2186;49.866;7.986;2024-01-11T06:57:32;101716.47;;;-6.99;86.14
4346;BME280;2186;49.866;7.986;2024-01-11T06:59:59;101709.59;;;-7.11;86.73
4346;BME280;2186;49.866;7.986;2024-01-11T07:02:25;101718.91;;;-7.13;87.74
4346;BME280;2186;49.866;7.986;2024-01-11T07:04:52;101732.41;;;-7.31;88.44
4346;BME280;2186;49.866;7.986;2024-01-11T07:07:23;101729.25;;;-7.27;88.59
4346;BME280;2186;49.866;7.986;2024-01-11T07:09:49;101725.09;;;-7.11;88.23
4346;BME280;2186;49.866;7.986;2024-01-11T07:12:16;101726.28;;;-7.06;87.69
4346;BME280;2186;49.866;7.986;2024-01-11T07:14:43;101726.78;;;-7.12;87.70
4346;BME280;2186;49.866;7.986;2024-01-11T07:17:09;101723.50;;;-7.09;87.71
4346;BME280;2186;49.866;7.986;2024-01-11T07:19:36;101721.91;;;-7.07;87.55
4346;BME280;2186;49.866;7.986;2024-01-11T07:22:03;101727.38;;;-7.03;87.90
4346;BME280;2186;49.866;7.986;2024-01-11T07:24:30;101733.03;;;-7.08;87.68
4346;BME280;2186;49.866;7.986;2024-01-11T07:27:06;101728.47;;;-7.26;89.04
4346;BME280;2186;49.866;7.986;2024-01-11T07:29:33;101726.56;;;-7.15;89.33
4346;BME280;2186;49.866;7.986;2024-01-11T07:32:00;101722.81;;;-7.20;89.17
4346;BME280;2186;49.866;7.986;2024-01-11T07:34:27;101722.91;;;-6.92;88.75
4346;BME280;2186;49.866;7.986;2024-01-11T07:36:54;101721.00;;;-6.81;88.27
4346;BME280;2186;49.866;7.986;2024-01-11T07:39:20;101726.38;;;-6.78;87.75
4346;BME280;2186;49.866;7.986;2024-01-11T07:41:48;101721.22;;;-7.05;89.07
4346;BME280;2186;49.866;7.986;2024-01-11T07:44:15;101722.19;;;-6.90;88.79
4346;BME280;2186;49.866;7.986;2024-01-11T07:46:42;101726.28;;;-6.93;89.10
4346;BME280;2186;49.866;7.986;2024-01-11T07:49:19;101719.22;;;-6.82;88.63
4346;BME280;2186;49.866;7.986;2024-01-11T07:51:46;101727.53;;;-6.73;88.11
4346;BME280;2186;49.866;7.986;2024-01-11T07:54:13;101729.16;;;-6.89;88.60
4346;BME280;2186;49.866;7.986;2024-01-11T07:56:39;101737.91;;;-7.00;88.24
4346;BME280;2186;49.866;7.986;2024-01-11T07:59:06;101740.28;;;-7.03;88.38
4346;BME280;2186;49.866;7.986;2024-01-11T08:01:33;101742.06;;;-6.89;88.63
4346;BME280;2186;49.866;7.986;2024-01-11T08:04:01;101741.59;;;-6.70;88.41
4346;BME280;2186;49.866;7.986;2024-01-11T08:06:29;101746.84;;;-6.68;88.73
4346;BME280;2186;49.866;7.986;2024-01-11T08:08:56;101746.53;;;-6.60;88.96
4346;BME280;2186;49.866;7.986;2024-01-11T08:11:22;101743.34;;;-6.55;88.95
4346;BME280;2186;49.866;7.986;2024-01-11T08:13:49;101749.41;;;-6.55;88.72
4346;BME280;2186;49.866;7.986;2024-01-11T08:16:16;101738.63;;;-6.35;89.76
4346;BME280;2186;49.866;7.986;2024-01-11T08:18:44;101742.19;;;-6.33;90.32
4346;BME280;2186;49.866;7.986;2024-01-11T08:21:11;101741.97;;;-6.22;90.68
4346;BME280;2186;49.866;7.986;2024-01-11T08:23:41;101738.53;;;-6.08;90.25
4346;BME280;2186;49.866;7.986;2024-01-11T08:26:12;101736.63;;;-5.98;89.90
4346;BME280;2186;49.866;7.986;2024-01-11T08:28:41;101737.06;;;-5.90;90.34
4346;BME280;2186;49.866;7.986;2024-01-11T08:31:07;101732.59;;;-5.78;90.21
4346;BME280;2186;49.866;7.986;2024-01-11T08:33:35;101740.38;;;-5.63;89.57
4346;BME280;2186;49.866;7.986;2024-01-11T08:36:04;101736.09;;;-5.62;89.16
4346;BME280;2186;49.866;7.986;2024-01-11T08:38:31;101732.81;;;-5.60;89.81
4346;BME280;2186;49.866;7.986;2024-01-11T08:40:58;101728.16;;;-5.51;88.62
4346;BME280;2186;49.866;7.986;2024-01-11T08:43:26;101731.06;;;-5.46;89.26
4346;BME280;2186;49.866;7.986;2024-01-11T08:45:52;101741.69;;;-5.42;89.24
4346;BME280;2186;49.866;7.986;2024-01-11T08:48:19;101747.84;;;-5.40;89.73
4346;BME280;2186;49.866;7.986;2024-01-11T08:50:46;101735.25;;;-5.33;89.36
4346;BME280;2186;49.866;7.986;2024-01-11T08:53:12;101735.59;;;-5.27;90.27
4346;BME280;2186;49.866;7.986;2024-01-11T08:55:39;101738.38;;;-5.24;90.99
4346;BME280;2186;49.866;7.986;2024-01-11T08:58:05;101742.56;;;-5.26;90.75
4346;BME280;2186;49.866;7.986;2024-01-11T09:00:32;101731.56;;;-5.08;90.49
4346;BME280;2186;49.866;7.986;2024-01-11T09:02:58;101730.31;;;-4.99;90.46
4346;BME280;2186;49.866;7.986;2024-01-11T09:05:26;101746.00;;;-4.82;90.30
4346;BME280;2186;49.866;7.986;2024-01-11T09:07:52;101740.84;;;-4.96;90.60
4346;BME280;2186;49.866;7.986;2024-01-11T09:10:19;101744.94;;;-4.85;90.63
4346;BME280;2186;49.866;7.986;2024-01-11T09:12:46;101734.50;;;-4.87;90.64
4346;BME280;2186;49.866;7.986;2024-01-11T09:15:13;101738.66;;;-4.74;90.99
4346;BME280;2186;49.866;7.986;2024-01-11T09:17:39;101756.19;;;-4.70;90.79
4346;BME280;2186;49.866;7.986;2024-01-11T09:20:06;101753.31;;;-4.60;90.50
4346;BME280;2186;49.866;7.986;2024-01-11T09:22:32;101753.59;;;-4.39;90.39
4346;BME280;2186;49.866;7.986;2024-01-11T09:24:59;101759.56;;;-4.09;90.07
4346;BME280;2186;49.866;7.986;2024-01-11T09:27:25;101763.81;;;-4.11;90.24
4346;BME280;2186;49.866;7.986;2024-01-11T09:29:52;101766.56;;;-3.92;88.89
4346;BME280;2186;49.866;7.986;2024-01-11T09:32:22;101771.38;;;-3.83;89.71
4346;BME280;2186;49.866;7.986;2024-01-11T09:34:48;101776.47;;;-3.68;88.45
4346;BME280;2186;49.866;7.986;2024-01-11T09:37:16;101783.84;;;-3.60;89.36
4346;BME280;2186;49.866;7.986;2024-01-11T09:39:43;101772.38;;;-3.47;88.78
4346;BME280;2186;49.866;7.986;2024-01-11T09:42:10;101771.91;;;-3.40;88.39
4346;BME280;2186;49.866;7.986;2024-01-11T09:44:37;101779.31;;;-3.30;88.00
4346;BME280;2186;49.866;7.986;2024-01-11T09:47:08;101777.94;;;-3.23;88.37
4346;BME280;2186;49.866;7.986;2024-01-11T09:49:40;101771.34;;;-3.16;88.32
4346;BME280;2186;49.866;7.986;2024-01-11T09:52:08;101770.16;;;-3.23;88.20
4346;BME280;2186;49.866;7.986;2024-01-11T09:54:37;101758.00;;;-3.06;88.32
4346;BME280;2186;49.866;7.986;2024-01-11T09:57:04;101758.31;;;-3.00;87.66
4346;BME280;2186;49.866;7.986;2024-01-11T09:59:32;101751.69;;;-2.93;87.41
4346;BME280;2186;49.866;7.986;2024-01-11T10:02:00;101749.63;;;-2.83;87.08
4346;BME280;2186;49.866;7.986;2024-01-11T10:04:28;101747.75;;;-2.67;87.03
4346;BME280;2186;49.866;7.986;2024-01-11T10:06:55;101741.28;;;-2.58;86.18
4346;BME280;2186;49.866;7.986;2024-01-11T10:09:22;101735.09;;;-2.42;86.13
4346;BME280;2186;49.866;7.986;2024-01-11T10:11:49;101738.78;;;-2.19;85.74
4346;BME280;2186;49.866;7.986;2024-01-11T10:14:17;101747.56;;;-2.17;85.17
4346;BME280;2186;49.866;7.986;2024-01-11T10:16:43;101748.59;;;-2.14;85.48
4346;BME280;2186;49.866;7.986;2024-01-11T10:19:10;101741.28;;;-2.03;85.50
4346;BME280;2186;49.866;7.986;2024-01-11T10:21:40;101745.50;;;-1.66;84.65
4346;BME280;2186;49.866;7.986;2024-01-11T10:24:06;101742.75;;;-1.69;84.66
4346;BME280;2186;49.866;7.986;2024-01-11T10:26:33;101746.41;;;-1.85;84.91
4346;BME280;2186;49.866;7.986;2024-01-11T10:29:00;101754.84;;;-1.71;84.87
4346;BME280;2186;49.866;7.986;2024-01-11T10:31:29;101765.53;;;-1.65;85.06
4346;BME280;2186;49.866;7.986;2024-01-11T10:33:57;101763.41;;;-1.55;84.52
4346;BME280;2186;49.866;7.986;2024-01-11T10:36:24;101770.75;;;-1.65;85.06
4346;BME280;2186;49.866;7.986;2024-01-11T10:38:52;101774.25;;;-1.45;84.21
4346;BME280;2186;49.866;7.986;2024-01-11T10:41:20;101767.78;;;-1.34;83.90
4346;BME280;2186;49.866;7.986;2024-01-11T10:43:48;101753.34;;;-1.26;83.68
4346;BME280;2186;49.866;7.986;2024-01-11T10:46:15;101737.25;;;-1.16;83.63
4346;BME280;2186;49.866;7.986;2024-01-11T10:48:44;101727.84;;;-1.12;83.80
4346;BME280;2186;49.866;7.986;2024-01-11T10:51:12;101735.06;;;-1.07;84.05
4346;BME280;2186;49.866;7.986;2024-01-11T10:53:46;101723.88;;;-1.24;85.06
4346;BME280;2186;49.866;7.986;2024-01-11T10:56:15;101720.97;;;-1.10;84.10
4346;BME280;2186;49.866;7.986;2024-01-11T10:58:45;101727.84;;;-0.92;83.82
4346;BME280;2186;49.866;7.986;2024-01-11T11:01:13;101720.84;;;-0.93;83.61
4346;BME280;2186;49.866;7.986;2024-01-11T11:03:40;101708.38;;;-0.79;83.26
4346;BME280;2186;49.866;7.986;2024-01-11T11:06:11;101709.84;;;-0.63;83.88
4346;BME280;2186;49.866;7.986;2024-01-11T11:08:39;101705.28;;;-0.24;81.79
4346;BME280;2186;49.866;7.986;2024-01-11T11:11:06;101711.13;;;-0.53;82.39
4346;BME280;2186;49.866;7.986;2024-01-11T11:13:34;101703.63;;;-0.44;82.44
4346;BME280;2186;49.866;7.986;2024-01-11T11:16:03;101703.69;;;-0.43;82.49
4346;BME280;2186;49.866;7.986;2024-01-11T11:18:32;101692.69;;;-0.34;82.01
4346;BME280;2186;49.866;7.986;2024-01-11T11:21:08;101683.59;;;0.01;81.42
4346;BME280;2186;49.866;7.986;2024-01-11T11:23:34;101685.34;;;0.02;81.38
4346;BME280;2186;49.866;7.986;2024-01-11T11:26:01;101679.72;;;-0.09;80.89
4346;BME280;2186;49.866;7.986;2024-01-11T11:28:27;101684.34;;;-0.25;81.15
4346;BME280;2186;49.866;7.986;2024-01-11T11:30:54;101684.16;;;-0.06;80.87
4346;BME280;2186;49.866;7.986;2024-01-11T11:33:24;101677.13;;;0.15;80.05
4346;BME280;2186;49.866;7.986;2024-01-11T11:35:57;101680.47;;;0.37;79.98
4346;BME280;2186;49.866;7.986;2024-01-11T11:38:26;101681.28;;;0.34;79.28
4346;BME280;2186;49.866;7.986;2024-01-11T11:40:53;101671.56;;;0.55;77.99
4346;BME280;2186;49.866;7.986;2024-01-11T11:43:21;101674.81;;;0.74;77.78
4346;BME280;2186;49.866;7.986;2024-01-11T11:45:49;101672.22;;;0.75;76.81
4346;BME280;2186;49.866;7.986;2024-01-11T11:51:20;101671.00;;;0.91;75.27
4346;BME280;2186;49.866;7.986;2024-01-11T11:53:50;101660.63;;;0.94;74.57
4346;BME280;2186;49.866;7.986;2024-01-11T11:56:20;101668.00;;;1.06;73.48
4346;BME280;2186;49.866;7.986;2024-01-11T11:58:48;101666.78;;;1.23;72.80
4346;BME280;2186;49.866;7.986;2024-01-11T12:01:16;101672.03;;;1.23;72.27
4346;BME280;2186;49.866;7.986;2024-01-11T12:03:46;101670.03;;;1.14;71.85
4346;BME280;2186;49.866;7.986;2024-01-11T12:06:17;101663.38;;;1.24;71.30
4346;BME280;2186;49.866;7.986;2024-01-11T12:08:46;101658.34;;;1.32;71.87
4346;BME280;2186;49.866;7.986;2024-01-11T12:11:22;101649.22;;;1.47;71.28
4346;BME280;2186;49.866;7.986;2024-01-11T12:13:50;101652.09;;;1.55;70.22
4346;BME280;2186;49.866;7.986;2024-01-11T12:16:16;101654.44;;;1.76;69.54
4346;BME280;2186;49.866;7.986;2024-01-11T12:18:43;101652.09;;;1.85;70.09
4346;BME280;2186;49.866;7.986;2024-01-11T12:21:10;101652.25;;;1.91;68.69
4346;BME280;2186;49.866;7.986;2024-01-11T12:23:38;101648.19;;;2.02;68.59
4346;BME280;2186;49.866;7.986;2024-01-11T12:26:08;101654.47;;;2.07;68.13
4346;BME280;2186;49.866;7.986;2024-01-11T12:28:40;101639.31;;;1.97;68.57
4346;BME280;2186;49.866;7.986;2024-01-11T12:31:08;101647.84;;;1.90;66.58
4346;BME280;2186;49.866;7.986;2024-01-11T12:33:35;101647.00;;;1.91;66.94
4346;BME280;2186;49.866;7.986;2024-01-11T12:36:06;101635.84;;;1.98;67.11
4346;BME280;2186;49.866;7.986;2024-01-11T12:38:34;101643.25;;;2.13;66.44
4346;BME280;2186;49.866;7.986;2024-01-11T12:41:00;101625.66;;;2.09;65.35
4346;BME280;2186;49.866;7.986;2024-01-11T12:43:27;101617.63;;;2.34;65.38
4346;BME280;2186;49.866;7.986;2024-01-11T12:45:54;101619.78;;;2.18;64.50
4346;BME280;2186;49.866;7.986;2024-01-11T12:48:21;101625.81;;;2.15;65.10
4346;BME280;2186;49.866;7.986;2024-01-11T12:50:48;101621.75;;;2.26;64.46
4346;BME280;2186;49.866;7.986;2024-01-11T12:53:14;101626.97;;;2.25;65.09
4346;BME280;2186;49.866;7.986;2024-01-11T12:55:45;101626.50;;;2.40;63.58
4346;BME280;2186;49.866;7.986;2024-01-11T12:58:23;101636.13;;;2.41;64.16
4346;BME280;2186;49.866;7.986;2024-01-11T13:00:52;101638.16;;;2.51;63.33
4346;BME280;2186;49.866;7.986;2024-01-11T13:03:19;101634.59;;;2.49;62.99
4346;BME280;2186;49.866;7.986;2024-01-11T13:05:47;101645.47;;;2.62;62.85
4346;BME280;2186;49.866;7.986;2024-01-11T13:08:15;101641.00;;;2.60;63.23
4346;BME280;2186;49.866;7.986;2024-01-11T13:10:44;101632.47;;;2.68;62.90
4346;BME280;2186;49.866;7.986;2024-01-11T13:13:13;101632.69;;;2.76;62.43
4346;BME280;2186;49.866;7.986;2024-01-11T13:15:40;101635.47;;;2.84;62.79